| time (UTC) | temp C | wind direction | speed KPH | gust KPH | rain 1hr cm | rain 24hr cm | rain mn cm | humidity % | barometer mb |
| 20260507151556 | 15 | 15 | 1.6 | 9.7 | 0.00 | 0.71 | 0.43 | 58 | 1006.9 |
| 20260507150056 | 15 | 334 | 1.6 | 12.9 | 0.00 | 0.71 | 0.43 | 57 | 1006.9 |
| 20260507144600 | 15 | 167 | 6.4 | 12.9 | 0.00 | 0.71 | 0.43 | 60 | 1007.1 |
| 20260507143058 | 15 | 308 | 0.0 | 8.0 | 0.00 | 0.71 | 0.43 | 63 | 1007.4 |
| 20260507141602 | 14 | 195 | 3.2 | 9.7 | 0.00 | 0.71 | 0.43 | 65 | 1007.3 |
| 20260507140058 | 13 | 328 | 3.2 | 12.9 | 0.00 | 0.71 | 0.43 | 65 | 1007.3 |
| 20260507134551 | 13 | 85 | 4.8 | 14.5 | 0.00 | 0.71 | 0.43 | 68 | 1007.3 |
| 20260507133048 | 12 | 207 | 1.6 | 9.7 | 0.00 | 0.71 | 0.43 | 74 | 1007.5 |
| 20260507131545 | 12 | 46 | 1.6 | 9.7 | 0.00 | 0.71 | 0.43 | 77 | 1007.5 |
| 20260507130044 | 12 | 38 | 0.0 | 3.2 | 0.00 | 0.71 | 0.43 | 83 | 1007.6 |
| 20260507124543 | 11 | 306 | 0.0 | 4.8 | 0.00 | 0.71 | 0.43 | 87 | 1007.7 |
| 20260507123046 | 10 | 289 | 0.0 | 6.4 | 0.00 | 0.71 | 0.43 | 90 | 1007.8 |
| 20260507121543 | 9 | 84 | 0.0 | 1.6 | 0.00 | 0.71 | 0.43 | 92 | 1007.9 |
| 20260507120041 | 9 | 198 | 0.0 | 0.0 | 0.00 | 0.71 | 0.43 | 92 | 1007.8 |
| 20260507114545 | 8 | 200 | 0.0 | 0.0 | 0.00 | 0.71 | 0.43 | 92 | 1007.5 |
| 20260507113039 | 8 | 146 | 0.0 | 0.0 | 0.00 | 0.71 | 0.43 | 92 | 1007.6 |
| 20260507111545 | 8 | 146 | 0.0 | 0.0 | 0.00 | 0.71 | 0.43 | 92 | 1007.3 |
| 20260507110037 | 8 | 146 | 0.0 | 0.0 | 0.00 | 0.71 | 0.43 | 92 | 1007.4 |
| 20260507104536 | 8 | 146 | 0.0 | 0.0 | 0.03 | 0.71 | 0.43 | 92 | 1007.0 |
| 20260507103036 | 8 | 205 | 0.0 | 0.0 | 0.08 | 0.71 | 0.43 | 91 | 1007.5 |
| 20260507101533 | 8 | 203 | 0.0 | 1.6 | 0.15 | 0.71 | 0.43 | 91 | 1007.4 |
| 20260507100034 | 8 | 213 | 0.0 | 1.6 | 0.18 | 0.71 | 0.43 | 91 | 1007.0 |
| 20260507094534 | 8 | 253 | 0.0 | 0.0 | 0.23 | 0.69 | 0.41 | 90 | 1006.8 |
| 20260507093040 | 8 | 255 | 0.0 | 0.0 | 0.25 | 0.64 | 0.36 | 90 | 1006.8 |
| 20260507091533 | 8 | 60 | 0.0 | 0.0 | 0.18 | 0.56 | 0.28 | 90 | 1006.7 |
| 20260507090028 | 8 | 150 | 0.0 | 0.0 | 0.20 | 0.53 | 0.25 | 89 | 1006.7 |
| 20260507084525 | 8 | 73 | 0.0 | 1.6 | 0.15 | 0.46 | 0.18 | 88 | 1007.0 |
| 20260507083027 | 9 | 323 | 0.0 | 1.6 | 0.10 | 0.38 | 0.10 | 88 | 1007.0 |
| 20260507081530 | 10 | 20 | 0.0 | 0.0 | 0.10 | 0.38 | 0.10 | 87 | 1006.6 |
| 20260507080021 | 10 | 22 | 0.0 | 0.0 | 0.05 | 0.33 | 0.05 | 85 | 1006.9 |
| 20260507074515 | 10 | 330 | 1.6 | 6.4 | 0.03 | 0.30 | 0.03 | 83 | 1006.7 |
| 20260507073011 | 11 | 349 | 0.0 | 4.8 | 0.00 | 0.28 | 0.00 | 82 | 1006.4 |
| 20260507071509 | 11 | 306 | 0.0 | 1.6 | 0.00 | 0.28 | 0.00 | 81 | 1005.8 |
| 20260507070011 | 11 | 300 | 0.0 | 1.6 | 0.00 | 0.28 | 0.00 | 82 | 1005.7 |
| 20260507064506 | 12 | 327 | 0.0 | 4.8 | 0.00 | 0.28 | 0.00 | 83 | 1005.7 |
| 20260507063003 | 12 | 309 | 0.0 | 4.8 | 0.00 | 0.28 | 0.00 | 85 | 1006.0 |
| 20260507061503 | 12 | 173 | 0.0 | 0.0 | 0.00 | 0.28 | 0.00 | 86 | 1005.8 |
| 20260507060100 | 12 | 173 | 0.0 | 1.6 | 0.00 | 0.28 | 0.00 | 86 | 1005.7 |
| 20260507054609 | 12 | 82 | 0.0 | 3.2 | 0.00 | 0.28 | 0.00 | 86 | 1005.9 |
| 20260507053056 | 13 | 60 | 0.0 | 3.2 | 0.00 | 0.28 | 0.00 | 88 | 1006.1 |
| 20260507051554 | 13 | 39 | 0.0 | 1.6 | 0.00 | 0.28 | 0.00 | 89 | 1006.1 |
| 20260507050049 | 13 | 219 | 0.0 | 1.6 | 0.00 | 0.28 | 0.00 | 90 | 1005.8 |
| 20260507044548 | 13 | 219 | 0.0 | 1.6 | 0.00 | 0.28 | 0.00 | 90 | 1005.9 |
| 20260507043045 | 14 | 207 | 0.0 | 1.6 | 0.00 | 0.28 | 0.00 | 90 | 1005.8 |
| 20260507041552 | 14 | 307 | 0.0 | 3.2 | 0.00 | 0.28 | 0.00 | 91 | 1005.7 |
| 20260507040041 | 15 | 317 | 0.0 | 1.6 | 0.00 | 0.28 | 0.00 | 91 | 1005.8 |
| 20260507034540 | 15 | 260 | 0.0 | 3.2 | 0.00 | 0.28 | 0.28 | 91 | 1006.0 |
| 20260507033044 | 15 | 226 | 0.0 | 8.0 | 0.00 | 0.28 | 0.28 | 91 | 1005.8 |
| 20260507031539 | 14 | 245 | 1.6 | 8.0 | 0.00 | 0.28 | 0.28 | 91 | 1005.6 |
| 20260507030041 | 14 | 203 | 3.2 | 9.7 | 0.00 | 0.28 | 0.28 | 91 | 1005.3 |
| 20260507024539 | 14 | 241 | 1.6 | 8.0 | 0.00 | 0.28 | 0.28 | 91 | 1005.4 |
| 20260507023038 | 14 | 212 | 0.0 | 8.0 | 0.00 | 0.28 | 0.28 | 91 | 1005.4 |
| 20260507021537 | 14 | 228 | 1.6 | 8.0 | 0.00 | 0.28 | 0.28 | 91 | 1005.2 |
| 20260507020037 | 14 | 224 | 3.2 | 9.7 | 0.00 | 0.28 | 0.28 | 91 | 1005.4 |
| 20260507014549 | 14 | 217 | 0.0 | 8.0 | 0.00 | 0.28 | 0.28 | 91 | 1005.4 |
| 20260507013043 | 14 | 186 | 0.0 | 12.9 | 0.00 | 0.28 | 0.28 | 91 | 1005.4 |
| 20260507011539 | 14 | 233 | 0.0 | 12.9 | 0.00 | 0.28 | 0.28 | 91 | 1005.7 |
| 20260507010034 | 14 | 216 | 0.0 | 11.3 | 0.00 | 0.28 | 0.28 | 91 | 1005.8 |
| 20260507004533 | 13 | 211 | 4.8 | 11.3 | 0.00 | 0.28 | 0.28 | 91 | 1005.8 |
| 20260507003034 | 13 | 216 | 1.6 | 8.0 | 0.05 | 0.28 | 0.28 | 91 | 1005.8 |
| 20260507001531 | 13 | 216 | 1.6 | 9.7 | 0.05 | 0.28 | 0.28 | 91 | 1005.7 |
| 20260507000032 | 13 | 241 | 4.8 | 12.9 | 0.08 | 0.28 | 0.28 | 91 | 1005.5 |
| 20260506234529 | 14 | 218 | 1.6 | 16.1 | 0.08 | 0.28 | 0.28 | 90 | 1005.3 |
| 20260506233028 | 14 | 251 | 4.8 | 19.3 | 0.03 | 0.23 | 0.23 | 90 | 1005.3 |
| 20260506231525 | 14 | 131 | 0.0 | 9.7 | 0.03 | 0.23 | 0.23 | 90 | 1005.3 |
| 20260506230024 | 14 | 252 | 3.2 | 12.9 | 0.00 | 0.20 | 0.20 | 90 | 1005.4 |
| 20260506224523 | 14 | 323 | 3.2 | 16.1 | 0.00 | 0.20 | 0.20 | 90 | 1005.4 |
| 20260506223021 | 15 | 291 | 4.8 | 20.9 | 0.03 | 0.20 | 0.20 | 90 | 1005.5 |
| 20260506221518 | 15 | 200 | 6.4 | 20.9 | 0.08 | 0.20 | 0.20 | 90 | 1005.7 |
| 20260506220017 | 15 | 172 | 4.8 | 14.5 | 0.10 | 0.20 | 0.20 | 90 | 1005.8 |
| 20260506214515 | 15 | 209 | 3.2 | 14.5 | 0.08 | 0.18 | 0.18 | 89 | 1005.8 |
| 20260506213014 | 15 | 233 | 1.6 | 16.1 | 0.08 | 0.18 | 0.18 | 88 | 1006.0 |
| 20260506211509 | 15 | 208 | 6.4 | 16.1 | 0.05 | 0.13 | 0.13 | 88 | 1006.1 |
| 20260506210008 | 15 | 205 | 3.2 | 17.7 | 0.03 | 0.10 | 0.10 | 87 | 1006.2 |
| 20260506204506 | 15 | 205 | 3.2 | 14.5 | 0.03 | 0.10 | 0.10 | 86 | 1006.3 |
| 20260506203003 | 15 | 201 | 4.8 | 14.5 | 0.05 | 0.10 | 0.10 | 85 | 1006.4 |
| 20260506201500 | 16 | 225 | 6.4 | 19.3 | 0.05 | 0.08 | 0.08 | 84 | 1006.4 |
| 20260506200148 | 16 | 214 | 9.7 | 24.1 | 0.08 | 0.08 | 0.08 | 83 | 1006.3 |
| 20260506194612 | 16 | 247 | 3.2 | 16.1 | 0.08 | 0.08 | 0.08 | 83 | 1006.1 |
| 20260506193055 | 16 | 210 | 11.3 | 25.7 | 0.05 | 0.05 | 0.05 | 80 | 1006.4 |
| 20260506191554 | 17 | 198 | 9.7 | 20.9 | 0.03 | 0.03 | 0.03 | 78 | 1006.5 |
| 20260506190056 | 18 | 204 | 3.2 | 17.7 | 0.00 | 0.00 | 0.00 | 74 | 1006.5 |
| 20260506184555 | 19 | 226 | 3.2 | 22.5 | 0.00 | 0.00 | 0.00 | 69 | 1006.4 |
| 20260506183053 | 20 | 214 | 3.2 | 27.4 | 0.00 | 0.00 | 0.00 | 67 | 1006.6 |
| 20260506181551 | 21 | 315 | 3.2 | 14.5 | 0.00 | 0.00 | 0.00 | 62 | 1006.6 |
| 20260506180053 | 21 | 238 | 4.8 | 32.2 | 0.00 | 0.00 | 0.00 | 60 | 1006.7 |
| 20260506174548 | 21 | 238 | 1.6 | 12.9 | 0.00 | 0.00 | 0.00 | 58 | 1006.8 |
| 20260506173057 | 22 | 200 | 9.7 | 35.4 | 0.00 | 0.00 | 0.00 | 56 | 1006.8 |
| 20260506171552 | 22 | 218 | 11.3 | 35.4 | 0.00 | 0.00 | 0.00 | 56 | 1006.9 |
| 20260506170045 | 23 | 238 | 11.3 | 22.5 | 0.00 | 0.00 | 0.00 | 56 | 1006.7 |
| 20260506164541 | 21 | 253 | 11.3 | 32.2 | 0.00 | 0.00 | 0.00 | 58 | 1007.1 |
| 20260506163046 | 22 | 244 | 4.8 | 25.7 | 0.00 | 0.00 | 0.00 | 57 | 1007.3 |
| 20260506161549 | 22 | 257 | 6.4 | 27.4 | 0.00 | 0.00 | 0.00 | 58 | 1007.5 |
| 20260506160036 | 22 | 206 | 6.4 | 17.7 | 0.00 | 0.00 | 0.00 | 59 | 1007.8 |
| 20260506154534 | 21 | 181 | 6.4 | 16.1 | 0.00 | 0.00 | 0.00 | 60 | 1008.1 |
| 20260506153032 | 22 | 258 | 4.8 | 16.1 | 0.00 | 0.00 | 0.00 | 59 | 1008.2 |